Time;durP1;ratioP1;P1;durP2;ratioP2;P2;SDS_P1;SDS_P2;PMS_P1;PMS_P2;Temp;Humidity;BMP_temperature;BMP_pressure;BME280_temperature;BME280_humidity;BME280_pressure;Samples;Min_cycle;Max_cycle;Signal;HPM_P1;HPM_P2
2021/07/25 00:01:45;;;;;;;42.25;30.48;;;;;;;;;;6304331;22;20024;-80
2021/07/25 00:04:12;;;;;;;43.85;30.10;;;;;;;;;;6304387;22;20023;-80
2021/07/25 00:06:39;;;;;;;42.60;30.50;;;;;;;;;;6310730;22;20027;-80
2021/07/25 00:09:06;;;;;;;45.40;29.98;;;;;;;;;;6314713;22;20038;-80
2021/07/25 00:11:32;;;;;;;39.33;30.17;;;;;;;;;;6312037;22;20027;-79
2021/07/25 00:14:04;;;;;;;48.53;31.52;;;;;;;;;;6306297;22;20037;-79
2021/07/25 00:16:33;;;;;;;44.33;30.38;;;;;;;;;;6308206;22;20092;-81
2021/07/25 00:19:00;;;;;;;41.75;30.23;;;;;;;;;;6307600;22;20069;-78
2021/07/25 00:21:27;;;;;;;41.72;30.38;;;;;;;;;;6306636;22;20401;-79
2021/07/25 00:23:57;;;;;;;41.17;29.25;;;;;;;;;;6305836;22;20031;-79
2021/07/25 00:26:53;;;;;;;43.45;29.77;;;;;;;;;;6306276;22;20037;-79
2021/07/25 00:29:18;;;;;;;37.60;28.77;;;;;;;;;;6305457;22;20019;-79
2021/07/25 00:31:46;;;;;;;40.08;28.90;;;;;;;;;;6303774;22;20027;-79
2021/07/25 00:34:13;;;;;;;38.33;28.30;;;;;;;;;;6305782;22;20031;-79
2021/07/25 00:36:40;;;;;;;38.28;27.95;;;;;;;;;;6306353;22;20067;-79
2021/07/25 00:39:10;;;;;;;38.40;27.33;;;;;;;;;;6306598;22;20031;-79
2021/07/25 00:41:37;;;;;;;41.25;27.95;;;;;;;;;;6304023;22;20419;-79
2021/07/25 00:44:04;;;;;;;37.67;28.65;;;;;;;;;;6306925;22;20027;-80
2021/07/25 00:46:33;;;;;;;37.22;26.25;;;;;;;;;;6305425;22;20023;-79
2021/07/25 00:49:00;;;;;;;37.05;28.15;;;;;;;;;;6304278;22;20024;-80
2021/07/25 00:51:28;;;;;;;40.00;26.40;;;;;;;;;;6307959;22;20037;-80
2021/07/25 00:53:57;;;;;;;35.92;27.75;;;;;;;;;;6306779;22;20112;-81
2021/07/25 00:56:28;;;;;;;42.05;30.10;;;;;;;;;;6306743;22;20148;-80
2021/07/25 00:58:54;;;;;;;39.85;29.65;;;;;;;;;;6305323;22;20058;-80
2021/07/25 01:01:22;;;;;;;42.40;30.88;;;;;;;;;;6306118;22;20074;-80
2021/07/25 01:04:05;;;;;;;44.08;31.80;;;;;;;;;;6307547;22;20019;-80
2021/07/25 01:06:38;;;;;;;48.45;32.08;;;;;;;;;;6307245;22;20062;-81
2021/07/25 01:09:11;;;;;;;47.40;34.22;;;;;;;;;;6308306;22;20027;-81
2021/07/25 01:11:45;;;;;;;47.30;32.58;;;;;;;;;;6318947;22;20074;-79
2021/07/25 01:14:15;;;;;;;50.60;34.40;;;;;;;;;;6318303;22;20058;-80
2021/07/25 01:16:42;;;;;;;46.63;34.13;;;;;;;;;;6315549;22;20437;-80
2021/07/25 01:19:18;;;;;;;50.67;34.95;;;;;;;;;;6322601;22;20055;-80
2021/07/25 01:21:44;;;;;;;54.65;35.63;;;;;;;;;;6328393;22;20034;-80
2021/07/25 01:24:11;;;;;;;48.70;34.83;;;;;;;;;;6326586;22;20029;-80
2021/07/25 01:26:41;;;;;;;55.90;37.33;;;;;;;;;;6306493;22;20023;-80
2021/07/25 01:29:26;;;;;;;53.35;37.00;;;;;;;;;;6312574;22;20034;-80
2021/07/25 01:31:54;;;;;;;52.42;38.17;;;;;;;;;;6318162;22;20027;-80
2021/07/25 01:34:22;;;;;;;63.38;40.53;;;;;;;;;;6309743;22;20069;-80
2021/07/25 01:36:48;;;;;;;64.80;42.13;;;;;;;;;;6307016;22;20323;-80
2021/07/25 01:39:18;;;;;;;67.25;41.92;;;;;;;;;;6308827;22;20030;-80
2021/07/25 01:41:45;;;;;;;62.80;42.65;;;;;;;;;;6306579;22;20027;-80
2021/07/25 01:44:12;;;;;;;70.00;46.45;;;;;;;;;;6307069;22;20027;-80
2021/07/25 01:46:39;;;;;;;70.50;45.80;;;;;;;;;;6308339;22;20023;-82
2021/07/25 01:49:06;;;;;;;82.25;48.85;;;;;;;;;;6306599;22;20482;-79
2021/07/25 01:51:34;;;;;;;78.68;47.88;;;;;;;;;;6307333;22;20027;-80
2021/07/25 01:54:01;;;;;;;77.85;47.75;;;;;;;;;;6309292;22;20096;-79
2021/07/25 01:56:31;;;;;;;79.90;48.60;;;;;;;;;;6282189;22;20333;-80
2021/07/25 01:58:59;;;;;;;89.85;53.88;;;;;;;;;;6308353;22;20084;-80
2021/07/25 02:01:25;;;;;;;88.40;55.50;;;;;;;;;;6311248;22;20185;-80
2021/07/25 02:03:55;;;;;;;99.15;57.13;;;;;;;;;;6314179;22;20026;-80
2021/07/25 02:06:22;;;;;;;95.97;57.15;;;;;;;;;;6316475;22;20027;-80
2021/07/25 02:08:53;;;;;;;112.45;61.50;;;;;;;;;;6316499;22;20023;-80
2021/07/25 02:11:20;;;;;;;101.00;56.47;;;;;;;;;;6313609;22;20266;-80
2021/07/25 02:13:47;;;;;;;100.60;58.50;;;;;;;;;;6310969;22;20047;-80
2021/07/25 02:16:14;;;;;;;95.13;59.05;;;;;;;;;;6311326;22;20405;-80
2021/07/25 02:18:40;;;;;;;104.95;60.03;;;;;;;;;;6317234;22;20125;-79
2021/07/25 02:21:07;;;;;;;101.90;58.63;;;;;;;;;;6311653;22;20035;-80
2021/07/25 02:23:35;;;;;;;106.97;61.83;;;;;;;;;;6324192;22;20023;-79
2021/07/25 02:26:01;;;;;;;108.88;64.10;;;;;;;;;;6323091;22;20045;-80
2021/07/25 02:28:28;;;;;;;118.53;63.85;;;;;;;;;;6317693;22;20028;-80
2021/07/25 02:30:55;;;;;;;117.80;65.53;;;;;;;;;;6329888;22;20062;-79
2021/07/25 02:33:28;;;;;;;119.07;64.18;;;;;;;;;;6340861;22;20148;-82
2021/07/25 02:35:56;;;;;;;116.38;64.68;;;;;;;;;;6311115;22;20058;-80
2021/07/25 02:38:23;;;;;;;115.55;63.17;;;;;;;;;;6310607;22;20026;-79
2021/07/25 02:40:49;;;;;;;114.82;65.50;;;;;;;;;;6310722;22;20125;-80
2021/07/25 02:43:17;;;;;;;113.80;62.97;;;;;;;;;;6342410;22;20027;-80
2021/07/25 02:45:44;;;;;;;105.55;60.28;;;;;;;;;;6345488;22;20108;-81
2021/07/25 02:48:11;;;;;;;100.38;61.60;;;;;;;;;;6317081;22;20070;-81
2021/07/25 02:50:38;;;;;;;103.43;59.33;;;;;;;;;;6312964;22;20023;-80
2021/07/25 02:53:04;;;;;;;108.97;63.40;;;;;;;;;;6340900;22;20085;-81
2021/07/25 02:55:31;;;;;;;103.72;59.72;;;;;;;;;;6312598;22;20200;-80
2021/07/25 02:57:58;;;;;;;105.13;61.22;;;;;;;;;;6341040;22;20079;-80
2021/07/25 03:00:43;;;;;;;118.80;62.92;;;;;;;;;;6340967;22;20027;-80
2021/07/25 03:03:09;;;;;;;111.97;61.92;;;;;;;;;;6311356;22;20018;-80
2021/07/25 03:05:36;;;;;;;99.65;60.10;;;;;;;;;;6312278;22;20041;-80
2021/07/25 03:08:04;;;;;;;108.18;60.72;;;;;;;;;;6313824;22;20027;-81
2021/07/25 03:10:31;;;;;;;100.70;58.70;;;;;;;;;;6313353;22;20074;-80
2021/07/25 03:13:01;;;;;;;103.72;59.38;;;;;;;;;;6312495;22;20311;-80
2021/07/25 03:15:31;;;;;;;95.13;56.30;;;;;;;;;;6343406;22;20061;-81
2021/07/25 03:17:58;;;;;;;88.55;52.80;;;;;;;;;;6315686;22;20026;-81
2021/07/25 03:20:28;;;;;;;89.45;53.92;;;;;;;;;;6314506;22;20031;-81
2021/07/25 03:22:55;;;;;;;88.95;53.28;;;;;;;;;;6314327;22;20026;-82
2021/07/25 03:25:22;;;;;;;89.93;53.50;;;;;;;;;;6314918;22;20168;-81
2021/07/25 03:27:48;;;;;;;91.30;52.33;;;;;;;;;;6341797;22;20034;-82
2021/07/25 03:30:15;;;;;;;78.57;46.63;;;;;;;;;;6317028;22;20069;-81
2021/07/25 03:32:45;;;;;;;73.55;46.58;;;;;;;;;;6342074;22;20050;-82
2021/07/25 03:35:12;;;;;;;77.63;45.67;;;;;;;;;;6342612;22;20078;-81
2021/07/25 03:37:44;;;;;;;80.45;46.97;;;;;;;;;;6343282;22;20033;-81
2021/07/25 03:40:12;;;;;;;72.20;45.35;;;;;;;;;;6316262;22;20046;-82
2021/07/25 03:42:39;;;;;;;71.40;44.33;;;;;;;;;;6341344;22;20023;-81
2021/07/25 03:45:06;;;;;;;70.32;44.10;;;;;;;;;;6342066;22;20241;-82
2021/07/25 03:47:32;;;;;;;72.35;46.47;;;;;;;;;;6341282;22;20030;-82
2021/07/25 03:49:59;;;;;;;76.72;46.08;;;;;;;;;;6341603;22;20093;-82
2021/07/25 03:52:26;;;;;;;70.32;44.25;;;;;;;;;;6316177;22;20033;-81
2021/07/25 03:54:53;;;;;;;68.13;43.15;;;;;;;;;;6343959;22;20037;-82
2021/07/25 03:57:19;;;;;;;68.22;42.20;;;;;;;;;;6342640;22;20056;-82
2021/07/25 03:59:46;;;;;;;69.25;42.50;;;;;;;;;;6343405;22;20369;-82
2021/07/25 04:02:13;;;;;;;70.32;41.08;;;;;;;;;;6315706;22;20038;-82
2021/07/25 04:04:40;;;;;;;67.30;41.33;;;;;;;;;;6329392;22;20100;-82
2021/07/25 04:07:07;;;;;;;63.85;40.42;;;;;;;;;;6355471;22;20033;-82
2021/07/25 04:09:34;;;;;;;62.33;40.58;;;;;;;;;;6328366;22;20041;-82
2021/07/25 04:12:00;;;;;;;62.53;41.03;;;;;;;;;;6329529;22;20057;-82
2021/07/25 04:14:27;;;;;;;64.28;37.90;;;;;;;;;;6333036;22;20011;-82
2021/07/25 04:16:54;;;;;;;55.08;37.33;;;;;;;;;;6357901;22;20053;-82
2021/07/25 04:19:21;;;;;;;66.15;39.53;;;;;;;;;;6329366;22;20086;-82
2021/07/25 04:21:48;;;;;;;63.97;38.40;;;;;;;;;;6323882;22;20451;-82
2021/07/25 04:24:16;;;;;;;63.30;39.65;;;;;;;;;;6344509;22;20037;-82
2021/07/25 04:26:43;;;;;;;57.13;38.03;;;;;;;;;;6317238;22;20027;-82
2021/07/25 04:29:10;;;;;;;63.88;40.53;;;;;;;;;;6345214;22;20023;-82
2021/07/25 04:31:37;;;;;;;58.38;38.72;;;;;;;;;;6317413;22;20037;-82
2021/07/25 04:34:04;;;;;;;63.58;42.63;;;;;;;;;;6319592;22;20022;-82
2021/07/25 04:36:31;;;;;;;68.25;41.28;;;;;;;;;;6317259;22;20026;-82
2021/07/25 04:38:58;;;;;;;65.45;40.88;;;;;;;;;;6318078;22;20034;-82
2021/07/25 04:41:26;;;;;;;68.05;41.15;;;;;;;;;;6342988;22;20050;-82
2021/07/25 04:44:12;;;;;;;63.83;39.05;;;;;;;;;;6341312;22;20034;-82
2021/07/25 04:46:42;;;;;;;61.42;41.38;;;;;;;;;;6315480;22;20023;-82
2021/07/25 04:49:13;;;;;;;71.15;42.58;;;;;;;;;;6317519;22;20019;-82
2021/07/25 04:51:44;;;;;;;63.33;42.33;;;;;;;;;;6317655;22;20408;-82
2021/07/25 04:54:13;;;;;;;65.35;42.75;;;;;;;;;;6318830;22;20052;-82
2021/07/25 04:56:57;;;;;;;63.78;41.92;;;;;;;;;;6319021;22;20172;-82
2021/07/25 04:59:26;;;;;;;66.72;42.95;;;;;;;;;;6318583;22;20022;-82
2021/07/25 05:01:58;;;;;;;65.43;43.33;;;;;;;;;;6318831;22;20444;-82
2021/07/25 05:04:25;;;;;;;72.95;43.97;;;;;;;;;;6347895;22;20060;-82
2021/07/25 05:06:53;;;;;;;71.80;42.63;;;;;;;;;;6318438;22;20353;-82
2021/07/25 05:09:22;;;;;;;59.17;42.10;;;;;;;;;;6320977;22;20309;-85
2021/07/25 05:12:11;;;;;;;67.20;44.33;;;;;;;;;;6319573;22;20418;-85
2021/07/25 05:14:37;;;;;;;75.13;46.42;;;;;;;;;;6346142;22;20102;-85
2021/07/25 05:17:18;;;;;;;71.57;45.97;;;;;;;;;;6318623;22;20157;-85
2021/07/25 05:19:57;;;;;;;75.13;45.40;;;;;;;;;;6347989;22;20037;-86
2021/07/25 05:22:42;;;;;;;65.78;44.47;;;;;;;;;;6348485;22;20072;-85
2021/07/25 05:25:13;;;;;;;70.75;46.35;;;;;;;;;;6321714;22;20023;-86
2021/07/25 05:27:50;;;;;;;70.35;47.05;;;;;;;;;;6346114;22;20316;-86
2021/07/25 05:30:42;;;;;;;80.43;50.42;;;;;;;;;;6320019;22;20022;-86
2021/07/25 05:33:10;;;;;;;93.32;54.70;;;;;;;;;;6319662;22;20305;-86
2021/07/25 05:35:40;;;;;;;80.25;52.53;;;;;;;;;;6348370;22;20076;-86
2021/07/25 05:38:07;;;;;;;84.78;52.70;;;;;;;;;;6347327;22;20083;-85
2021/07/25 05:40:33;;;;;;;88.60;54.50;;;;;;;;;;6347445;22;20062;-86
2021/07/25 05:43:00;;;;;;;94.45;56.22;;;;;;;;;;6321591;22;20023;-85
2021/07/25 05:45:29;;;;;;;95.50;54.67;;;;;;;;;;6324397;22;20019;-86
2021/07/25 05:47:57;;;;;;;78.35;52.72;;;;;;;;;;6335958;22;20027;-86
2021/07/25 05:50:24;;;;;;;89.70;53.47;;;;;;;;;;6335681;22;20158;-86
2021/07/25 05:52:52;;;;;;;80.13;52.00;;;;;;;;;;6346764;22;20026;-86
2021/07/25 05:55:20;;;;;;;88.03;51.97;;;;;;;;;;6319706;22;20061;-86
2021/07/25 05:57:47;;;;;;;81.88;53.42;;;;;;;;;;6346652;22;20049;-86
2021/07/25 06:00:17;;;;;;;73.68;50.15;;;;;;;;;;6317841;22;20062;-85
2021/07/25 06:02:57;;;;;;;72.93;45.13;;;;;;;;;;6319193;22;20098;-85
2021/07/25 06:05:24;;;;;;;75.30;45.03;;;;;;;;;;6318298;22;20404;-85
2021/07/25 06:07:55;;;;;;;67.70;44.08;;;;;;;;;;6348049;22;20274;-86
2021/07/25 06:10:23;;;;;;;59.60;42.35;;;;;;;;;;6327774;22;20019;-86
2021/07/25 06:12:51;;;;;;;66.40;41.47;;;;;;;;;;6321859;22;20297;-85
2021/07/25 06:15:18;;;;;;;57.72;38.60;;;;;;;;;;6345897;22;20069;-85
2021/07/25 06:17:45;;;;;;;66.43;40.10;;;;;;;;;;6347102;22;20444;-85
2021/07/25 06:20:12;;;;;;;58.45;40.13;;;;;;;;;;6345383;22;20097;-85
2021/07/25 06:22:40;;;;;;;55.75;37.60;;;;;;;;;;6317722;22;20010;-86
2021/07/25 06:25:11;;;;;;;59.17;36.63;;;;;;;;;;6345714;22;20053;-85
2021/07/25 06:27:38;;;;;;;61.85;37.83;;;;;;;;;;6318338;22;20076;-85
2021/07/25 06:30:08;;;;;;;50.63;35.17;;;;;;;;;;6319532;22;20023;-85
2021/07/25 06:32:54;;;;;;;55.83;37.20;;;;;;;;;;6345177;22;20055;-85
2021/07/25 06:35:25;;;;;;;52.80;36.60;;;;;;;;;;6321129;22;20023;-85
2021/07/25 06:37:52;;;;;;;57.33;36.03;;;;;;;;;;6319971;22;20014;-85
2021/07/25 06:40:19;;;;;;;49.72;34.42;;;;;;;;;;6318365;22;20029;-85
2021/07/25 06:42:46;;;;;;;53.25;35.05;;;;;;;;;;6345694;22;20022;-85
2021/07/25 06:45:14;;;;;;;50.75;34.67;;;;;;;;;;6344354;22;20022;-85
2021/07/25 06:47:49;;;;;;;54.78;35.97;;;;;;;;;;6343973;22;20145;-85
2021/07/25 06:50:19;;;;;;;53.65;33.97;;;;;;;;;;6344140;22;20102;-85
2021/07/25 06:52:47;;;;;;;52.38;32.97;;;;;;;;;;6344227;22;20031;-85
2021/07/25 06:55:14;;;;;;;49.05;32.55;;;;;;;;;;6346504;22;20023;-85
2021/07/25 06:57:41;;;;;;;51.63;31.52;;;;;;;;;;6358950;22;20045;-85
2021/07/25 07:00:08;;;;;;;53.17;33.60;;;;;;;;;;6328065;22;20041;-85
2021/07/25 07:02:54;;;;;;;46.55;31.70;;;;;;;;;;6332602;22;20236;-85
2021/07/25 07:05:25;;;;;;;43.75;31.30;;;;;;;;;;6359704;22;20015;-86
2021/07/25 07:07:53;;;;;;;48.35;32.28;;;;;;;;;;6358412;22;20023;-85
2021/07/25 07:10:21;;;;;;;60.85;32.13;;;;;;;;;;6354524;22;20039;-85
2021/07/25 07:12:48;;;;;;;39.72;29.27;;;;;;;;;;6347302;22;20033;-85
2021/07/25 07:15:16;;;;;;;50.67;30.77;;;;;;;;;;6345710;22;20049;-85
2021/07/25 07:17:43;;;;;;;37.00;28.23;;;;;;;;;;6320963;22;20022;-86
2021/07/25 07:20:10;;;;;;;37.92;27.70;;;;;;;;;;6345745;22;20196;-86
2021/07/25 07:22:37;;;;;;;42.72;30.10;;;;;;;;;;6319355;22;20022;-86
2021/07/25 07:25:05;;;;;;;38.83;29.17;;;;;;;;;;6318239;22;20023;-86
2021/07/25 07:27:35;;;;;;;44.42;29.85;;;;;;;;;;6322886;22;20205;-86
2021/07/25 07:30:07;;;;;;;43.78;31.10;;;;;;;;;;6349568;22;20023;-86
2021/07/25 07:32:35;;;;;;;40.25;28.52;;;;;;;;;;6325022;22;20034;-85
2021/07/25 07:35:02;;;;;;;45.28;31.95;;;;;;;;;;6322796;22;20023;-85
2021/07/25 07:37:41;;;;;;;46.15;29.67;;;;;;;;;;6321818;22;20023;-86
2021/07/25 07:40:08;;;;;;;47.03;31.95;;;;;;;;;;6349820;22;20019;-85
2021/07/25 07:42:36;;;;;;;45.35;31.25;;;;;;;;;;6350080;22;20023;-85
2021/07/25 07:45:04;;;;;;;38.95;29.27;;;;;;;;;;6350869;22;20029;-85
2021/07/25 07:47:33;;;;;;;42.50;28.90;;;;;;;;;;6323314;22;20312;-85
2021/07/25 07:50:04;;;;;;;45.10;30.63;;;;;;;;;;6351772;22;20023;-85
2021/07/25 07:52:37;;;;;;;42.97;29.17;;;;;;;;;;6350194;22;20046;-85
2021/07/25 07:55:09;;;;;;;44.58;28.55;;;;;;;;;;6324825;22;20023;-85
2021/07/25 07:57:36;;;;;;;40.00;29.27;;;;;;;;;;6351792;22;20037;-85
2021/07/25 08:00:10;;;;;;;43.53;30.02;;;;;;;;;;6323377;22;20033;-85
2021/07/25 08:02:36;;;;;;;40.10;27.15;;;;;;;;;;6326004;22;20023;-85
2021/07/25 08:05:06;;;;;;;41.55;27.77;;;;;;;;;;6327791;22;20177;-86
2021/07/25 08:07:45;;;;;;;37.88;26.25;;;;;;;;;;6350889;22;20212;-86
2021/07/25 08:10:12;;;;;;;36.30;25.85;;;;;;;;;;6322266;22;20023;-87
2021/07/25 08:12:40;;;;;;;39.95;27.08;;;;;;;;;;6349809;22;20091;-85
2021/07/25 08:15:23;;;;;;;32.45;23.85;;;;;;;;;;6321667;22;20110;-87
2021/07/25 08:17:50;;;;;;;37.72;25.48;;;;;;;;;;6323424;22;20027;-86
2021/07/25 08:20:16;;;;;;;35.33;24.88;;;;;;;;;;6347593;22;20029;-88
2021/07/25 08:22:45;;;;;;;32.58;24.08;;;;;;;;;;6322381;22;20151;-85
2021/07/25 08:25:12;;;;;;;38.10;23.52;;;;;;;;;;6354232;22;20046;-85
2021/07/25 08:27:40;;;;;;;31.15;22.92;;;;;;;;;;6327291;22;20065;-85
2021/07/25 08:30:08;;;;;;;33.95;21.15;;;;;;;;;;6322429;22;20088;-85
2021/07/25 08:32:35;;;;;;;31.80;23.20;;;;;;;;;;6324210;22;20058;-85
2021/07/25 08:35:01;;;;;;;33.15;24.00;;;;;;;;;;6321753;22;20027;-85
2021/07/25 08:37:36;;;;;;;34.08;24.85;;;;;;;;;;6320382;22;20035;-85
2021/07/25 08:40:03;;;;;;;38.47;24.15;;;;;;;;;;6318620;22;20027;-86
2021/07/25 08:42:34;;;;;;;32.47;22.73;;;;;;;;;;6320064;22;20007;-86
2021/07/25 08:45:04;;;;;;;28.17;22.42;;;;;;;;;;6320276;22;20321;-86
2021/07/25 08:47:36;;;;;;;30.88;21.30;;;;;;;;;;6319752;22;20450;-85
2021/07/25 08:50:27;;;;;;;33.88;23.52;;;;;;;;;;6321121;22;20019;-85
2021/07/25 08:53:02;;;;;;;31.02;22.25;;;;;;;;;;6320383;22;20053;-85
2021/07/25 08:55:29;;;;;;;29.77;23.02;;;;;;;;;;6312751;22;20027;-85
2021/07/25 08:57:59;;;;;;;29.35;19.90;;;;;;;;;;6312312;22;20049;-85
2021/07/25 09:00:28;;;;;;;28.50;20.27;;;;;;;;;;6307890;22;20223;-86
2021/07/25 09:02:56;;;;;;;25.30;18.85;;;;;;;;;;6308209;22;20145;-85
2021/07/25 09:05:24;;;;;;;23.33;18.00;;;;;;;;;;6312461;22;20046;-85
2021/07/25 09:07:52;;;;;;;27.60;19.13;;;;;;;;;;6314945;22;20011;-85
2021/07/25 09:10:21;;;;;;;24.10;18.83;;;;;;;;;;6325119;22;20025;-85
2021/07/25 09:12:49;;;;;;;29.33;17.25;;;;;;;;;;6320466;22;20196;-85
2021/07/25 09:15:24;;;;;;;23.90;16.10;;;;;;;;;;6322021;22;20034;-85
2021/07/25 09:17:52;;;;;;;25.90;15.40;;;;;;;;;;6317131;22;20366;-85
2021/07/25 09:20:24;;;;;;;22.02;16.65;;;;;;;;;;6315544;22;20189;-86
2021/07/25 09:22:52;;;;;;;24.98;16.40;;;;;;;;;;6309076;22;20019;-85
2021/07/25 09:25:20;;;;;;;22.92;16.13;;;;;;;;;;6308197;22;20084;-85
2021/07/25 09:27:47;;;;;;;18.52;14.43;;;;;;;;;;6307209;22;20035;-85
2021/07/25 09:30:18;;;;;;;22.58;16.63;;;;;;;;;;6317282;22;20023;-85
2021/07/25 09:32:46;;;;;;;19.98;13.63;;;;;;;;;;6318253;22;20052;-86
2021/07/25 09:35:24;;;;;;;19.95;13.32;;;;;;;;;;6347676;22;20026;-86
2021/07/25 09:38:14;;;;;;;21.90;14.57;;;;;;;;;;6316013;22;20472;-85
2021/07/25 09:40:42;;;;;;;18.50;14.13;;;;;;;;;;6313642;22;20072;-86
2021/07/25 09:43:12;;;;;;;18.27;13.35;;;;;;;;;;6323679;22;20041;-86
2021/07/25 09:45:50;;;;;;;22.38;14.80;;;;;;;;;;6330326;22;20010;-86
2021/07/25 09:48:21;;;;;;;17.50;13.40;;;;;;;;;;6343894;22;20027;-86
2021/07/25 09:50:48;;;;;;;16.15;11.43;;;;;;;;;;6313406;22;20027;-86
2021/07/25 09:53:15;;;;;;;15.57;10.88;;;;;;;;;;6324945;22;20050;-86
2021/07/25 09:55:42;;;;;;;19.48;11.98;;;;;;;;;;6325377;22;20053;-86
2021/07/25 09:58:10;;;;;;;15.27;12.18;;;;;;;;;;6315417;22;20027;-87
2021/07/25 10:00:41;;;;;;;15.68;10.63;;;;;;;;;;6314510;22;20076;-86
2021/07/25 10:03:24;;;;;;;14.27;11.50;;;;;;;;;;6317214;22;20239;-85
2021/07/25 10:05:51;;;;;;;17.05;11.57;;;;;;;;;;6341337;22;20041;-85
2021/07/25 10:08:21;;;;;;;14.77;11.63;;;;;;;;;;6341109;22;20340;-85
2021/07/25 10:10:52;;;;;;;18.77;12.07;;;;;;;;;;6339845;22;20019;-86
2021/07/25 10:13:23;;;;;;;15.70;9.95;;;;;;;;;;6324458;22;20017;-86
2021/07/25 10:15:54;;;;;;;17.08;10.32;;;;;;;;;;6327153;22;20006;-85
2021/07/25 10:18:22;;;;;;;16.38;10.57;;;;;;;;;;6354153;22;20098;-86
2021/07/25 10:20:59;;;;;;;18.50;10.60;;;;;;;;;;6337018;22;20034;-86
2021/07/25 10:23:35;;;;;;;14.30;9.77;;;;;;;;;;6311589;22;20023;-87
2021/07/25 10:26:02;;;;;;;12.90;9.60;;;;;;;;;;6336994;22;20057;-85
2021/07/25 10:28:33;;;;;;;11.77;8.60;;;;;;;;;;6336431;22;20057;-86
2021/07/25 10:31:02;;;;;;;11.23;8.50;;;;;;;;;;6308660;22;20023;-86
2021/07/25 10:33:29;;;;;;;11.10;8.43;;;;;;;;;;6338381;22;20044;-86
2021/07/25 10:36:01;;;;;;;11.13;8.10;;;;;;;;;;6309224;22;20446;-86
2021/07/25 10:38:29;;;;;;;10.30;7.00;;;;;;;;;;6307669;22;20199;-87
2021/07/25 10:40:56;;;;;;;10.45;7.22;;;;;;;;;;6336690;22;20194;-87
2021/07/25 10:43:25;;;;;;;8.10;6.95;;;;;;;;;;6308140;22;20329;-86
2021/07/25 10:46:10;;;;;;;13.00;7.47;;;;;;;;;;6306716;22;20023;-86
2021/07/25 10:48:37;;;;;;;8.93;6.80;;;;;;;;;;6334423;22;20105;-87
2021/07/25 10:51:11;;;;;;;11.02;6.97;;;;;;;;;;6334433;22;20018;-86
2021/07/25 10:53:42;;;;;;;13.57;6.77;;;;;;;;;;6334892;22;20030;-86
2021/07/25 10:56:09;;;;;;;10.10;6.53;;;;;;;;;;6307233;22;20103;-86
2021/07/25 10:58:54;;;;;;;8.88;5.80;;;;;;;;;;6308045;22;20064;-86
2021/07/25 11:01:43;;;;;;;7.35;5.57;;;;;;;;;;6308811;22;20122;-86
2021/07/25 11:04:10;;;;;;;9.55;5.13;;;;;;;;;;6332394;22;20373;-84
2021/07/25 11:06:39;;;;;;;7.55;6.22;;;;;;;;;;6331855;22;20091;-86
2021/07/25 11:09:05;;;;;;;10.68;6.13;;;;;;;;;;6331324;22;20463;-86
2021/07/25 11:11:35;;;;;;;11.00;6.53;;;;;;;;;;6331915;22;20027;-85
2021/07/25 11:14:09;;;;;;;12.70;6.65;;;;;;;;;;6332198;22;20051;-85
2021/07/25 11:16:42;;;;;;;7.55;5.68;;;;;;;;;;6332403;22;20027;-85
2021/07/25 11:19:24;;;;;;;9.35;6.45;;;;;;;;;;6305420;22;20286;-85
2021/07/25 11:21:53;;;;;;;9.95;5.80;;;;;;;;;;6332527;22;20419;-85
2021/07/25 11:24:22;;;;;;;9.35;5.97;;;;;;;;;;6331731;22;20172;-85
2021/07/25 11:26:51;;;;;;;10.32;5.55;;;;;;;;;;6303879;22;20101;-85
2021/07/25 11:29:33;;;;;;;7.60;5.60;;;;;;;;;;6304938;22;20320;-85
2021/07/25 11:32:01;;;;;;;9.65;5.82;;;;;;;;;;6300767;22;20200;-85
2021/07/25 11:34:36;;;;;;;8.60;5.60;;;;;;;;;;6299075;22;20091;-86
2021/07/25 11:37:04;;;;;;;10.63;6.45;;;;;;;;;;6298324;22;20085;-85
2021/07/25 11:39:51;;;;;;;9.93;6.30;;;;;;;;;;6300318;22;20054;-85
2021/07/25 11:42:18;;;;;;;11.27;5.32;;;;;;;;;;6299594;22;20366;-86
2021/07/25 11:44:46;;;;;;;6.65;5.10;;;;;;;;;;6296303;22;20023;-85
2021/07/25 11:47:25;;;;;;;7.88;5.03;;;;;;;;;;6300340;22;20137;-85
2021/07/25 11:49:52;;;;;;;6.07;4.68;;;;;;;;;;6299502;22;20050;-86
2021/07/25 11:52:19;;;;;;;6.05;5.32;;;;;;;;;;6299019;22;20102;-86
2021/07/25 11:54:49;;;;;;;9.15;5.07;;;;;;;;;;6298695;22;20105;-86
2021/07/25 11:57:21;;;;;;;7.07;5.00;;;;;;;;;;6297970;22;20225;-86
2021/07/25 11:59:52;;;;;;;7.95;5.40;;;;;;;;;;6304661;22;20019;-86
2021/07/25 12:02:27;;;;;;;9.73;5.47;;;;;;;;;;6305516;22;20416;-85
2021/07/25 12:04:56;;;;;;;7.45;5.75;;;;;;;;;;6304366;22;20055;-86
2021/07/25 12:07:36;;;;;;;8.68;5.13;;;;;;;;;;6312745;22;20113;-86
2021/07/25 12:10:04;;;;;;;7.90;6.05;;;;;;;;;;6319526;22;20011;-86
2021/07/25 12:12:36;;;;;;;5.15;4.63;;;;;;;;;;6309637;22;20050;-87
2021/07/25 12:15:05;;;;;;;7.28;5.70;;;;;;;;;;6317364;22;20196;-84
2021/07/25 12:17:48;;;;;;;9.32;5.25;;;;;;;;;;6321489;22;20015;-85
2021/07/25 12:20:16;;;;;;;6.50;4.57;;;;;;;;;;6318175;22;20014;-86
2021/07/25 12:22:57;;;;;;;8.55;5.40;;;;;;;;;;6317274;22;20031;-86
2021/07/25 12:25:32;;;;;;;8.50;4.88;;;;;;;;;;6307420;22;20003;-86
2021/07/25 12:28:02;;;;;;;6.28;5.05;;;;;;;;;;6305764;22;20031;-86
2021/07/25 12:30:40;;;;;;;6.50;5.32;;;;;;;;;;6306393;22;20031;-86
2021/07/25 12:33:26;;;;;;;7.80;5.60;;;;;;;;;;6306898;22;20089;-86
2021/07/25 12:36:08;;;;;;;7.25;5.45;;;;;;;;;;6303819;22;20163;-86
2021/07/25 12:38:35;;;;;;;6.75;5.43;;;;;;;;;;6303678;22;20061;-86
2021/07/25 12:41:05;;;;;;;7.35;5.07;;;;;;;;;;6304963;22;20324;-86
2021/07/25 12:43:33;;;;;;;8.02;5.47;;;;;;;;;;6304425;22;20571;-88
2021/07/25 12:46:02;;;;;;;8.85;5.75;;;;;;;;;;6304307;22;20356;-85
2021/07/25 12:48:33;;;;;;;7.07;5.65;;;;;;;;;;6304302;22;20165;-86
2021/07/25 12:51:28;;;;;;;7.03;5.72;;;;;;;;;;6306562;22;20023;-86
2021/07/25 12:53:57;;;;;;;9.05;5.93;;;;;;;;;;6302987;22;20038;-86
2021/07/25 12:56:34;;;;;;;7.53;5.07;;;;;;;;;;6317908;22;20905;-86
2021/07/25 12:59:14;;;;;;;6.88;5.85;;;;;;;;;;6318682;22;20015;-86
2021/07/25 13:04:13;;;;;;;8.57;5.72;;;;;;;;;;6308513;22;20023;-86
2021/07/25 13:06:47;;;;;;;8.75;5.75;;;;;;;;;;6306656;22;20034;-86
2021/07/25 13:09:18;;;;;;;8.88;5.68;;;;;;;;;;6302122;22;20082;-87
2021/07/25 13:11:47;;;;;;;7.47;5.60;;;;;;;;;;6301578;22;20054;-87
2021/07/25 13:14:26;;;;;;;11.77;6.07;;;;;;;;;;6307817;22;20126;-87
2021/07/25 13:16:55;;;;;;;8.75;6.00;;;;;;;;;;6302621;22;20106;-84
2021/07/25 13:19:24;;;;;;;8.80;5.93;;;;;;;;;;6304902;22;20085;-85
2021/07/25 13:21:55;;;;;;;7.53;5.28;;;;;;;;;;6304191;22;20023;-87
2021/07/25 13:24:22;;;;;;;6.65;5.75;;;;;;;;;;6312350;22;20023;-87
2021/07/25 13:26:49;;;;;;;8.68;6.18;;;;;;;;;;6314816;22;20142;-84
2021/07/25 13:29:28;;;;;;;7.53;5.43;;;;;;;;;;6311715;22;20023;-85
2021/07/25 13:31:55;;;;;;;7.75;5.75;;;;;;;;;;6309499;22;20144;-86
2021/07/25 13:34:23;;;;;;;8.98;6.22;;;;;;;;;;6310956;22;20446;-86
2021/07/25 13:36:53;;;;;;;9.88;5.65;;;;;;;;;;6310059;22;20090;-86
2021/07/25 13:39:26;;;;;;;6.47;5.07;;;;;;;;;;6308016;22;20041;-86
2021/07/25 13:41:53;;;;;;;6.25;5.15;;;;;;;;;;6312747;22;20082;-86
2021/07/25 13:44:23;;;;;;;9.32;5.82;;;;;;;;;;6311266;22;20019;-87
2021/07/25 13:46:55;;;;;;;7.63;5.43;;;;;;;;;;6310669;22;20023;-87
2021/07/25 13:49:22;;;;;;;7.03;5.22;;;;;;;;;;6306731;22;20019;-87
2021/07/25 13:51:49;;;;;;;7.95;5.57;;;;;;;;;;6308349;22;20110;-87
2021/07/25 13:54:15;;;;;;;9.15;5.50;;;;;;;;;;6311435;22;20023;-86
2021/07/25 13:56:45;;;;;;;5.43;4.93;;;;;;;;;;6307453;22;20027;-85
2021/07/25 13:59:11;;;;;;;8.00;5.43;;;;;;;;;;6313594;22;20097;-87
2021/07/25 14:01:38;;;;;;;6.13;4.63;;;;;;;;;;6314637;22;20026;-88
2021/07/25 14:04:10;;;;;;;7.00;5.00;;;;;;;;;;6308154;22;20023;-88
2021/07/25 14:06:37;;;;;;;6.18;4.65;;;;;;;;;;6311648;22;20023;-85
2021/07/25 14:09:04;;;;;;;7.72;5.30;;;;;;;;;;6312530;22;20016;-86
2021/07/25 14:11:39;;;;;;;7.97;5.45;;;;;;;;;;6312846;22;20025;-86
2021/07/25 14:14:09;;;;;;;8.45;4.95;;;;;;;;;;6310656;22;20069;-86
2021/07/25 14:16:47;;;;;;;7.57;5.47;;;;;;;;;;6309704;22;20058;-85
2021/07/25 14:19:17;;;;;;;7.15;5.72;;;;;;;;;;6310418;22;20277;-87
2021/07/25 14:21:44;;;;;;;7.75;5.65;;;;;;;;;;6308218;22;20035;-87
2021/07/25 14:24:14;;;;;;;7.32;5.60;;;;;;;;;;6310241;22;20059;-86
2021/07/25 14:26:40;;;;;;;9.68;6.05;;;;;;;;;;6307669;22;20384;-87
2021/07/25 14:29:17;;;;;;;8.68;5.35;;;;;;;;;;6309588;22;20035;-87
2021/07/25 14:31:44;;;;;;;7.20;6.15;;;;;;;;;;6335615;22;20034;-87
2021/07/25 14:34:13;;;;;;;8.98;5.53;;;;;;;;;;6344169;22;20106;-87
2021/07/25 14:36:42;;;;;;;8.25;6.03;;;;;;;;;;6329070;22;20022;-85
2021/07/25 14:39:09;;;;;;;8.35;6.18;;;;;;;;;;6357372;22;20162;-87
2021/07/25 14:41:38;;;;;;;7.90;6.18;;;;;;;;;;6355937;22;20175;-87
2021/07/25 14:44:11;;;;;;;7.28;5.35;;;;;;;;;;6356368;22;20154;-86